Aviation Digital Data Service (ADDS)

Output produced by METARs form (0516 UTC 16 February 2019)
found at http://www.aviationweather.gov/metar/data/
 
Forecast for: LTFJ (SABIHA GOKCEN , TR)
Text: TAF LTFJ 160440Z 1606/1706 03015KT 9999 BKN030
Forecast period: 0600 to 2200 UTC 16 February 2019
Forecast type: FROM: standard forecast or significant change
Winds: from the NNE (30 degrees) at 17 MPH (15 knots; 7.7 m/s)
Visibility: 6 or more miles 10+ km)
Ceiling: 3000 feet AGL
Clouds: broken clouds at 3000 feet AGL
Weather: no significant weather forecast for this period
Text: BECMG 1622/1702 VRB02KT
Forecast period: 2200 UTC 16 February 2019 to 0200 UTC 17 February 2019
Forecast type: BECOMING: Conditions expected to become as follows by 0200 UTC 17 February 2019
Winds: variable direction winds at 2 MPH (2 knots; 1.0 m/s)
Visibility: 6 or more miles 10+ km)
Ceiling: 3000 feet AGL
Clouds: broken clouds at 3000 feet AGL
Weather: no significant weather forecast for this period
Text: BECMG 1702/1705 CAVOK
Forecast period: 0200 to 0600 UTC 17 February 2019
Forecast type: BECOMING: Conditions expected to become as follows by 0500 UTC 17 February 2019
Winds: variable direction winds at 2 MPH (2 knots; 1.0 m/s)
Visibility: 6 or more miles 10+ km)
Ceiling: unknown
Clouds: missing
Weather: NSW  (no significant weather)